Time;durP1;ratioP1;P1;durP2;ratioP2;P2;SDS_P1;SDS_P2;PMS_P1;PMS_P2;Temp;Humidity;BMP_temperature;BMP_pressure;BME280_temperature;BME280_humidity;BME280_pressure;Samples;Min_cycle;Max_cycle;Signal;HPM_P1;HPM_P2
2022/05/28 00:00:17;;;;;;;;;;;;;;;;;;5091214;28;19959;-69
2022/05/28 00:02:43;;;;;;;;;;;;;;;;;;5090791;28;19954;-69
2022/05/28 00:05:08;;;;;;;;;;;;;;;;;;5091080;28;19910;-69
2022/05/28 00:10:03;;;;;;;;;;;;;;;;;;5091176;27;19923;-70
2022/05/28 00:13:35;;;;;;;;;;;;;;;;;;5091308;27;20299;-70
2022/05/28 00:16:01;;;;;;;;;;;;;;;;;;5090977;28;20007;-70
2022/05/28 00:18:28;;;;;;;;;;;;;;;;;;5091010;28;19915;-70
2022/05/28 00:22:35;;;;;;;;;;;;;;;;;;5090873;28;19917;-70
2022/05/28 00:25:01;;;;;;;;;;;;;;;;;;5091155;28;20429;-69
2022/05/28 00:28:21;;;;;;;;;;;;;;;;;;5091376;28;20304;-71
2022/05/28 00:34:06;;;;;;;;;;;;;;;;;;5091381;27;19923;-69
2022/05/28 00:36:32;;;;;;;;;;;;;;;;;;5090748;28;19913;-69
2022/05/28 00:40:26;;;;;;;;;;;;;;;;;;5173659;27;20002;-70
2022/05/28 00:44:45;;;;;;;;;;;;;;;;;;5090826;27;20025;-70
2022/05/28 00:47:11;;;;;;;;;;;;;;;;;;5091296;28;20003;-69
2022/05/28 00:52:03;;;;;;;;;;;;;;;;;;5090967;27;19917;-69
2022/05/28 00:54:29;;;;;;;;;;;;;;;;;;5091300;28;19912;-69
2022/05/28 01:01:27;;;;;;;;;;;;;;;;;;5091393;27;19917;-69
2022/05/28 01:04:28;;;;;;;;;;;;;;;;;;5090983;28;19918;-70
2022/05/28 01:06:54;;;;;;;;;;;;;;;;;;5091349;28;19959;-70
2022/05/28 01:10:54;;;;;;;;;;;;;;;;;;5091843;27;19939;-70
2022/05/28 01:14:59;;;;;;;;;;;;;;;;;;5091901;27;19923;-70
2022/05/28 01:20:06;;;;;;;;;;;;;;;;;;5111344;27;19919;-70
2022/05/28 01:22:32;;;;;;;;;;;;;;;;;;5111649;28;19923;-70
2022/05/28 01:25:59;;;;;;;;;;;;;;;;;;5091056;27;19913;-70
2022/05/28 01:28:25;;;;;;;;;;;;;;;;;;5091230;28;19999;-70
2022/05/28 01:30:51;;;;;;;;;;;;;;;;;;5091119;28;19916;-70
2022/05/28 01:33:17;;;;;;;;;;;;;;;;;;5090671;28;19912;-70
2022/05/28 01:35:43;;;;;;;;;;;;;;;;;;5091269;28;19909;-69
2022/05/28 01:38:11;;;;;;;;;;;;;;;;;;5091103;28;19908;-69
2022/05/28 01:40:37;;;;;;;;;;;;;;;;;;5090584;28;20018;-70
2022/05/28 01:47:17;;;;;;;;;;;;;;;;;;5091179;27;19912;-70
2022/05/28 01:49:43;;;;;;;;;;;;;;;;;;5091256;28;19999;-70
2022/05/28 01:52:09;;;;;;;;;;;;;;;;;;5089867;28;19908;-69
2022/05/28 01:54:35;;;;;;;;;;;;;;;;;;5090766;28;19952;-69
2022/05/28 01:57:01;;;;;;;;;;;;;;;;;;5089758;28;19963;-69
2022/05/28 01:59:27;;;;;;;;;;;;;;;;;;5091121;28;19955;-69
2022/05/28 02:03:53;;;;;;;;;;;;;;;;;;5091722;27;19917;-70
2022/05/28 02:08:23;;;;;;;;;;;;;;;;;;5091276;27;19970;-70
2022/05/28 02:12:46;;;;;;;;;;;;;;;;;;5091732;28;19917;-70
2022/05/28 02:17:19;;;;;;;;;;;;;;;;;;5071434;28;19917;-70
2022/05/28 02:22:35;;;;;;;;;;;;;;;;;;5091258;27;19916;-70
2022/05/28 02:25:01;;;;;;;;;;;;;;;;;;5091192;28;19912;-70
2022/05/28 02:30:34;;;;;;;;;;;;;;;;;;5091451;27;19923;-70
2022/05/28 02:34:50;;;;;;;;;;;;;;;;;;5071170;28;19923;-70
2022/05/28 02:37:16;;;;;;;;;;;;;;;;;;5070693;28;19999;-70
2022/05/28 02:39:42;;;;;;;;;;;;;;;;;;5071428;28;20230;-70
2022/05/28 02:43:57;;;;;;;;;;;;;;;;;;5091060;28;19916;-70
2022/05/28 02:47:44;;;;;;;;;;;;;;;;;;5092157;27;19916;-70
2022/05/28 02:50:10;;;;;;;;;;;;;;;;;;5090909;28;19913;-69
2022/05/28 02:53:27;;;;;;;;;;;;;;;;;;5092110;27;20276;-69
2022/05/28 02:56:11;;;;;;;;;;;;;;;;;;5091843;27;19913;-69
2022/05/28 02:58:37;;;;;;;;;;;;;;;;;;5090885;28;19913;-69
2022/05/28 03:01:03;;;;;;;;;;;;;;;;;;5091257;28;19908;-69
2022/05/28 03:03:29;;;;;;;;;;;;;;;;;;5091223;28;20384;-69
2022/05/28 03:05:55;;;;;;;;;;;;;;;;;;5091136;28;20003;-70
2022/05/28 03:11:01;;;;;;;;;;;;;;;;;;5090987;27;19917;-70
2022/05/28 03:13:27;;;;;;;;;;;;;;;;;;5089996;28;20452;-70
2022/05/28 03:20:28;;;;;;;;;;;;;;;;;;5091825;28;19916;-70
2022/05/28 03:22:54;;;;;;;;;;;;;;;;;;5091319;28;20003;-70
2022/05/28 03:27:59;;;;;;;;;;;;;;;;;;5091849;27;19916;-70
2022/05/28 03:30:25;;;;;;;;;;;;;;;;;;5091243;28;20026;-71
2022/05/28 03:36:14;;;;;;;;;;;;;;;;;;5092048;27;19939;-70
2022/05/28 03:38:40;;;;;;;;;;;;;;;;;;5090977;28;20436;-69
2022/05/28 03:41:06;;;;;;;;;;;;;;;;;;5091283;28;19908;-70
2022/05/28 03:43:32;;;;;;;;;;;;;;;;;;5091355;28;19908;-70
2022/05/28 03:48:29;;;;;;;;;;;;;;;;;;5174175;27;20353;-70
2022/05/28 03:51:45;;;;;;;;;;;;;;;;;;5091882;28;19916;-69
2022/05/28 03:54:11;;;;;;;;;;;;;;;;;;5090962;28;20345;-69
2022/05/28 03:56:37;;;;;;;;;;;;;;;;;;5091279;28;19915;-69
2022/05/28 03:59:03;;;;;;;;;;;;;;;;;;5091224;28;20357;-69
2022/05/28 04:01:29;;;;;;;;;;;;;;;;;;5090744;28;19909;-69
2022/05/28 04:04:36;;;;;;;;;;;;;;;;;;5091534;27;19922;-70
2022/05/28 04:07:02;;;;;;;;;;;;;;;;;;5090870;28;20250;-69
2022/05/28 04:14:05;;;;;;;;;;;;;;;;;;5090983;27;19919;-70
2022/05/28 04:16:31;;;;;;;;;;;;;;;;;;5091259;28;19995;-70
2022/05/28 04:18:57;;;;;;;;;;;;;;;;;;5091236;28;19909;-70
2022/05/28 04:21:23;;;;;;;;;;;;;;;;;;5091058;28;19913;-70
2022/05/28 04:24:01;;;;;;;;;;;;;;;;;;5092257;27;19916;-71
2022/05/28 04:26:27;;;;;;;;;;;;;;;;;;5091316;28;19999;-71
2022/05/28 04:30:55;;;;;;;;;;;;;;;;;;5091923;27;19923;-70
2022/05/28 04:39:37;;;;;;;;;;;;;;;;;;5091851;27;19916;-70
2022/05/28 04:43:56;;;;;;;;;;;;;;;;;;5091126;28;19916;-69
2022/05/28 04:46:22;;;;;;;;;;;;;;;;;;5091265;28;20007;-69
2022/05/28 04:51:13;;;;;;;;;;;;;;;;;;5111367;27;20302;-70
2022/05/28 04:56:07;;;;;;;;;;;;;;;;;;5091086;27;19923;-70
2022/05/28 04:58:47;;;;;;;;;;;;;;;;;;5153052;27;20336;-71
2022/05/28 05:01:13;;;;;;;;;;;;;;;;;;5152873;27;19973;-71
2022/05/28 05:06:36;;;;;;;;;;;;;;;;;;5091802;27;20295;-71
2022/05/28 05:09:02;;;;;;;;;;;;;;;;;;5091310;28;19995;-71
2022/05/28 05:13:05;;;;;;;;;;;;;;;;;;5091796;27;19922;-71
2022/05/28 05:15:31;;;;;;;;;;;;;;;;;;5091451;28;19999;-71
2022/05/28 05:17:56;;;;;;;;;;;;;;;;;;5090843;28;20387;-71
2022/05/28 05:22:06;;;;;;;;;;;;;;;;;;5091747;27;19923;-71
2022/05/28 05:26:29;;;;;;;;;;;;;;;;;;5111375;27;19922;-71
2022/05/28 05:28:55;;;;;;;;;;;;;;;;;;5111670;28;19995;-71
2022/05/28 05:31:21;;;;;;;;;;;;;;;;;;5111208;28;19908;-70
2022/05/28 05:33:47;;;;;;;;;;;;;;;;;;5111645;28;20379;-70
2022/05/28 05:36:13;;;;;;;;;;;;;;;;;;5111425;28;20364;-70
2022/05/28 05:40:37;;;;;;;;;;;;;;;;;;5091323;27;19917;-71
2022/05/28 05:43:03;;;;;;;;;;;;;;;;;;5091305;28;19919;-71
2022/05/28 05:45:29;;;;;;;;;;;;;;;;;;5091118;28;19908;-71
2022/05/28 05:47:55;;;;;;;;;;;;;;;;;;5089969;28;19912;-71
2022/05/28 05:52:48;;;;;;;;;;;;;;;;;;5091483;27;20384;-71
2022/05/28 05:55:14;;;;;;;;;;;;;;;;;;5091451;28;19995;-71
2022/05/28 05:57:40;;;;;;;;;;;;;;;;;;5091170;28;19944;-71
2022/05/28 06:00:06;;;;;;;;;;;;;;;;;;5090906;28;20360;-71
2022/05/28 06:02:32;;;;;;;;;;;;;;;;;;5091506;28;19909;-71
2022/05/28 06:06:28;;;;;;;;;;;;;;;;;;5091479;27;19912;-71
2022/05/28 06:08:54;;;;;;;;;;;;;;;;;;5091682;28;19948;-72
2022/05/28 06:11:20;;;;;;;;;;;;;;;;;;5091545;28;20353;-72
2022/05/28 06:14:06;;;;;;;;;;;;;;;;;;5091146;27;19916;-71
2022/05/28 06:16:32;;;;;;;;;;;;;;;;;;5091593;28;20003;-71
2022/05/28 06:18:58;;;;;;;;;;;;;;;;;;5091200;28;20424;-71
2022/05/28 06:22:18;;;;;;;;;;;;;;;;;;5091043;28;20281;-71
2022/05/28 06:24:44;;;;;;;;;;;;;;;;;;5091811;28;20007;-71
2022/05/28 06:27:10;;;;;;;;;;;;;;;;;;5091281;28;19908;-71
2022/05/28 06:29:36;;;;;;;;;;;;;;;;;;5090916;28;19909;-71
2022/05/28 06:34:01;;;;;;;;;;;;;;;;;;5092150;27;19912;-71
2022/05/28 06:36:27;;;;;;;;;;;;;;;;;;5091156;28;19999;-71
2022/05/28 06:38:53;;;;;;;;;;;;;;;;;;5091283;28;20313;-71
2022/05/28 06:41:19;;;;;;;;;;;;;;;;;;5091286;28;19955;-71
2022/05/28 06:43:45;;;;;;;;;;;;;;;;;;5090813;28;20438;-71
2022/05/28 06:48:52;;;;;;;;;;;;;;;;;;5091581;27;19929;-71
2022/05/28 06:51:18;;;;;;;;;;;;;;;;;;5091329;28;20027;-71
2022/05/28 06:53:45;;;;;;;;;;;;;;;;;;5091226;28;19908;-71
2022/05/28 06:56:11;;;;;;;;;;;;;;;;;;5090789;28;19948;-71
2022/05/28 07:00:33;;;;;;;;;;;;;;;;;;5092086;27;19917;-71
2022/05/28 07:04:07;;;;;;;;;;;;;;;;;;5091175;28;19912;-71
2022/05/28 07:06:34;;;;;;;;;;;;;;;;;;5091348;28;20011;-71
2022/05/28 07:09:00;;;;;;;;;;;;;;;;;;5091537;28;19951;-71
2022/05/28 07:11:26;;;;;;;;;;;;;;;;;;5090948;28;19965;-71
2022/05/28 07:13:52;;;;;;;;;;;;;;;;;;5091119;28;20323;-71
2022/05/28 07:17:44;;;;;;;;;;;;;;;;;;5173385;27;19911;-71
2022/05/28 07:20:10;;;;;;;;;;;;;;;;;;5173865;27;19910;-71
2022/05/28 07:22:36;;;;;;;;;;;;;;;;;;5173951;27;20310;-71
2022/05/28 07:25:02;;;;;;;;;;;;;;;;;;5173420;27;19918;-71
2022/05/28 07:29:58;;;;;;;;;;;;;;;;;;5071954;28;19917;-70
2022/05/28 07:32:29;;;;;;;;;;;;;;;;;;5070552;28;19999;-70
2022/05/28 07:34:55;;;;;;;;;;;;;;;;;;5070924;28;19909;-71
2022/05/28 07:37:21;;;;;;;;;;;;;;;;;;5070978;28;19908;-71
2022/05/28 07:39:47;;;;;;;;;;;;;;;;;;5070390;28;19908;-71
2022/05/28 07:42:13;;;;;;;;;;;;;;;;;;5070913;28;20437;-70
2022/05/28 07:44:40;;;;;;;;;;;;;;;;;;5070852;28;19962;-70
2022/05/28 07:47:06;;;;;;;;;;;;;;;;;;5070400;28;19977;-71
2022/05/28 07:49:31;;;;;;;;;;;;;;;;;;5070699;28;20008;-71
2022/05/28 07:51:57;;;;;;;;;;;;;;;;;;5069047;28;20293;-71
2022/05/28 07:54:23;;;;;;;;;;;;;;;;;;5070742;28;19916;-70
2022/05/28 07:56:49;;;;;;;;;;;;;;;;;;5070593;28;19909;-70
2022/05/28 07:59:15;;;;;;;;;;;;;;;;;;5070074;28;19909;-70
2022/05/28 08:01:41;;;;;;;;;;;;;;;;;;5070588;28;19996;-70
2022/05/28 08:04:07;;;;;;;;;;;;;;;;;;5070430;28;19915;-71
2022/05/28 08:06:33;;;;;;;;;;;;;;;;;;5069983;28;19908;-71
2022/05/28 08:08:59;;;;;;;;;;;;;;;;;;5070079;28;20273;-71
2022/05/28 08:11:26;;;;;;;;;;;;;;;;;;5070453;28;19959;-71
2022/05/28 08:14:11;;;;;;;;;;;;;;;;;;5091133;27;19916;-71
2022/05/28 08:16:37;;;;;;;;;;;;;;;;;;5091251;28;19913;-71
2022/05/28 08:19:03;;;;;;;;;;;;;;;;;;5091414;28;19954;-70
2022/05/28 08:24:14;;;;;;;;;;;;;;;;;;5091206;28;19962;-70
2022/05/28 08:26:40;;;;;;;;;;;;;;;;;;5090956;28;19912;-71
2022/05/28 08:29:06;;;;;;;;;;;;;;;;;;5090630;28;19913;-70
2022/05/28 08:31:32;;;;;;;;;;;;;;;;;;5091033;28;19947;-70
2022/05/28 08:33:58;;;;;;;;;;;;;;;;;;5090867;28;19916;-70
2022/05/28 08:36:24;;;;;;;;;;;;;;;;;;5090558;28;20424;-70
2022/05/28 08:38:50;;;;;;;;;;;;;;;;;;5090804;28;20003;-70
2022/05/28 08:41:16;;;;;;;;;;;;;;;;;;5090461;28;19961;-70
2022/05/28 08:43:42;;;;;;;;;;;;;;;;;;5091114;28;19909;-71
2022/05/28 08:46:08;;;;;;;;;;;;;;;;;;5090991;28;19934;-70
2022/05/28 08:48:34;;;;;;;;;;;;;;;;;;5090320;28;20281;-70
2022/05/28 08:51:00;;;;;;;;;;;;;;;;;;5090636;28;19999;-70
2022/05/28 08:53:26;;;;;;;;;;;;;;;;;;5090658;28;20428;-70
2022/05/28 08:55:53;;;;;;;;;;;;;;;;;;5090179;28;19908;-70
2022/05/28 08:58:19;;;;;;;;;;;;;;;;;;5090469;28;19908;-70
2022/05/28 09:00:45;;;;;;;;;;;;;;;;;;5090369;28;19908;-71
2022/05/28 09:03:11;;;;;;;;;;;;;;;;;;5090028;28;19938;-71
2022/05/28 09:05:37;;;;;;;;;;;;;;;;;;5090439;28;20337;-72
2022/05/28 09:08:03;;;;;;;;;;;;;;;;;;5090450;28;19909;-70
2022/05/28 09:10:29;;;;;;;;;;;;;;;;;;5090181;28;19991;-70
2022/05/28 09:12:55;;;;;;;;;;;;;;;;;;5100076;28;20380;-70
2022/05/28 09:15:21;;;;;;;;;;;;;;;;;;5110503;28;19998;-70
2022/05/28 09:17:47;;;;;;;;;;;;;;;;;;5110275;28;19915;-70
2022/05/28 09:20:13;;;;;;;;;;;;;;;;;;5110589;28;19908;-70
2022/05/28 09:22:39;;;;;;;;;;;;;;;;;;5110190;28;20230;-70
2022/05/28 09:25:05;;;;;;;;;;;;;;;;;;5098808;28;19908;-70
2022/05/28 09:27:31;;;;;;;;;;;;;;;;;;5096679;28;19912;-70
2022/05/28 09:29:57;;;;;;;;;;;;;;;;;;5096696;28;19991;-70
2022/05/28 09:32:23;;;;;;;;;;;;;;;;;;5096220;28;20257;-70
2022/05/28 09:34:49;;;;;;;;;;;;;;;;;;5096785;28;19908;-70
2022/05/28 09:37:15;;;;;;;;;;;;;;;;;;5096717;28;19955;-70
2022/05/28 09:39:41;;;;;;;;;;;;;;;;;;5096021;28;19912;-70
2022/05/28 09:42:06;;;;;;;;;;;;;;;;;;5096404;28;19908;-70
2022/05/28 09:44:32;;;;;;;;;;;;;;;;;;5096036;28;19914;-70
2022/05/28 09:46:58;;;;;;;;;;;;;;;;;;5096557;28;19912;-70
2022/05/28 09:49:24;;;;;;;;;;;;;;;;;;5096427;28;19914;-70
2022/05/28 09:51:50;;;;;;;;;;;;;;;;;;5095734;28;20318;-70
2022/05/28 09:54:16;;;;;;;;;;;;;;;;;;5096189;28;19954;-70
2022/05/28 09:56:42;;;;;;;;;;;;;;;;;;5096221;28;19934;-71
2022/05/28 09:59:10;;;;;;;;;;;;;;;;;;5095563;28;19909;-72
2022/05/28 10:01:36;;;;;;;;;;;;;;;;;;5096118;28;19908;-70
2022/05/28 10:06:46;;;;;;;;;;;;;;;;;;5095698;28;19915;-70
2022/05/28 10:09:12;;;;;;;;;;;;;;;;;;5095840;28;19908;-70
2022/05/28 10:11:38;;;;;;;;;;;;;;;;;;5095842;28;20372;-72
2022/05/28 10:14:05;;;;;;;;;;;;;;;;;;5095243;28;19920;-71
2022/05/28 10:16:31;;;;;;;;;;;;;;;;;;5096071;28;20361;-70
2022/05/28 10:18:56;;;;;;;;;;;;;;;;;;5096031;28;19950;-70
2022/05/28 10:21:22;;;;;;;;;;;;;;;;;;5095249;28;20288;-70
2022/05/28 10:23:48;;;;;;;;;;;;;;;;;;5095709;28;19908;-70
2022/05/28 10:26:14;;;;;;;;;;;;;;;;;;5095553;28;19909;-70
2022/05/28 10:28:40;;;;;;;;;;;;;;;;;;5095122;28;20284;-70
2022/05/28 10:31:06;;;;;;;;;;;;;;;;;;5095528;28;19944;-70
2022/05/28 10:33:33;;;;;;;;;;;;;;;;;;5095916;28;19923;-70
2022/05/28 10:35:59;;;;;;;;;;;;;;;;;;5094178;28;19918;-70
2022/05/28 10:38:25;;;;;;;;;;;;;;;;;;5095268;28;19998;-70
2022/05/28 10:40:51;;;;;;;;;;;;;;;;;;5094774;28;20344;-70
2022/05/28 10:43:16;;;;;;;;;;;;;;;;;;5077075;28;19908;-70
2022/05/28 10:45:42;;;;;;;;;;;;;;;;;;5095827;28;19961;-70
2022/05/28 10:48:08;;;;;;;;;;;;;;;;;;5094814;28;20262;-70
2022/05/28 10:50:34;;;;;;;;;;;;;;;;;;5095174;28;19908;-70
2022/05/28 10:53:00;;;;;;;;;;;;;;;;;;5095132;28;19961;-71
2022/05/28 10:55:26;;;;;;;;;;;;;;;;;;5094861;28;19915;-71
2022/05/28 10:57:52;;;;;;;;;;;;;;;;;;5094972;28;19916;-70
2022/05/28 11:00:19;;;;;;;;;;;;;;;;;;5094899;28;19915;-70
2022/05/28 11:02:45;;;;;;;;;;;;;;;;;;5094565;28;19992;-70
2022/05/28 11:05:11;;;;;;;;;;;;;;;;;;5094804;28;20371;-70
2022/05/28 11:07:37;;;;;;;;;;;;;;;;;;5094721;28;19914;-70
2022/05/28 11:10:03;;;;;;;;;;;;;;;;;;5094373;28;19947;-70
2022/05/28 11:12:29;;;;;;;;;;;;;;;;;;5094415;28;19965;-70
2022/05/28 11:14:55;;;;;;;;;;;;;;;;;;5094667;28;20323;-71
2022/05/28 11:17:21;;;;;;;;;;;;;;;;;;5094113;28;19912;-70
2022/05/28 11:19:47;;;;;;;;;;;;;;;;;;5076375;28;19908;-71
2022/05/28 11:22:13;;;;;;;;;;;;;;;;;;5094808;28;19914;-70
2022/05/28 11:24:39;;;;;;;;;;;;;;;;;;5094094;28;19931;-70
2022/05/28 11:27:05;;;;;;;;;;;;;;;;;;5094447;28;19908;-70
2022/05/28 11:29:31;;;;;;;;;;;;;;;;;;5094319;28;19912;-70
2022/05/28 11:31:57;;;;;;;;;;;;;;;;;;5093925;28;19909;-70
2022/05/28 11:34:23;;;;;;;;;;;;;;;;;;5094490;28;20357;-70
2022/05/28 11:36:49;;;;;;;;;;;;;;;;;;5094327;28;19908;-70
2022/05/28 11:39:15;;;;;;;;;;;;;;;;;;5093883;28;19908;-70
2022/05/28 11:41:41;;;;;;;;;;;;;;;;;;5094242;28;20019;-70
2022/05/28 11:44:07;;;;;;;;;;;;;;;;;;5094014;28;19916;-70
2022/05/28 11:46:33;;;;;;;;;;;;;;;;;;5094325;28;19948;-71
2022/05/28 11:51:44;;;;;;;;;;;;;;;;;;5093802;28;19995;-71
2022/05/28 11:54:10;;;;;;;;;;;;;;;;;;5093848;28;20368;-70
2022/05/28 11:56:36;;;;;;;;;;;;;;;;;;5093893;28;19915;-70
2022/05/28 11:59:02;;;;;;;;;;;;;;;;;;5093654;28;20291;-71
2022/05/28 12:01:28;;;;;;;;;;;;;;;;;;5094379;28;19908;-71
2022/05/28 12:03:54;;;;;;;;;;;;;;;;;;5075873;28;20041;-71
2022/05/28 12:06:20;;;;;;;;;;;;;;;;;;5093558;28;20388;-71
2022/05/28 12:08:46;;;;;;;;;;;;;;;;;;5093892;28;20376;-71
2022/05/28 12:11:12;;;;;;;;;;;;;;;;;;5094232;28;19908;-71
2022/05/28 12:13:38;;;;;;;;;;;;;;;;;;5093144;28;20380;-71
2022/05/28 12:16:04;;;;;;;;;;;;;;;;;;5093863;28;19915;-72
2022/05/28 12:18:30;;;;;;;;;;;;;;;;;;5093840;28;19950;-71
2022/05/28 12:20:59;;;;;;;;;;;;;;;;;;5093541;28;19915;-70
2022/05/28 12:23:25;;;;;;;;;;;;;;;;;;5093975;28;20361;-70
2022/05/28 12:25:51;;;;;;;;;;;;;;;;;;5093814;28;19919;-71
2022/05/28 12:28:18;;;;;;;;;;;;;;;;;;5093457;28;20384;-71
2022/05/28 12:30:47;;;;;;;;;;;;;;;;;;5093750;28;20449;-71
2022/05/28 12:33:13;;;;;;;;;;;;;;;;;;5093146;28;19962;-70
2022/05/28 12:35:39;;;;;;;;;;;;;;;;;;5093460;28;20322;-70
2022/05/28 12:38:05;;;;;;;;;;;;;;;;;;5093340;28;19907;-70
2022/05/28 12:40:31;;;;;;;;;;;;;;;;;;5093087;28;19912;-70
2022/05/28 12:42:57;;;;;;;;;;;;;;;;;;5093403;28;19983;-70
2022/05/28 12:45:23;;;;;;;;;;;;;;;;;;5093205;28;20257;-70
2022/05/28 12:47:49;;;;;;;;;;;;;;;;;;5092849;28;19955;-71
2022/05/28 12:50:15;;;;;;;;;;;;;;;;;;5093566;28;19934;-70
2022/05/28 12:52:41;;;;;;;;;;;;;;;;;;5093340;28;20006;-70
2022/05/28 12:55:06;;;;;;;;;;;;;;;;;;5093072;28;20261;-70
2022/05/28 12:57:34;;;;;;;;;;;;;;;;;;5093319;28;19915;-70
2022/05/28 13:00:00;;;;;;;;;;;;;;;;;;5095699;28;19908;-70
2022/05/28 13:02:26;;;;;;;;;;;;;;;;;;5096773;28;19912;-70
2022/05/28 13:04:52;;;;;;;;;;;;;;;;;;5097541;28;20474;-71
2022/05/28 13:07:18;;;;;;;;;;;;;;;;;;5097331;28;19916;-70
2022/05/28 13:09:44;;;;;;;;;;;;;;;;;;5096687;28;19975;-70
2022/05/28 13:12:10;;;;;;;;;;;;;;;;;;5096722;28;19967;-70
2022/05/28 13:14:36;;;;;;;;;;;;;;;;;;5078829;28;19912;-71
2022/05/28 13:17:02;;;;;;;;;;;;;;;;;;5096495;28;20289;-70
2022/05/28 13:19:28;;;;;;;;;;;;;;;;;;5078794;28;19947;-70
2022/05/28 13:21:54;;;;;;;;;;;;;;;;;;5096890;28;20325;-70
2022/05/28 13:24:19;;;;;;;;;;;;;;;;;;5096242;28;19909;-70
2022/05/28 13:26:46;;;;;;;;;;;;;;;;;;5096721;28;19963;-70
2022/05/28 13:29:12;;;;;;;;;;;;;;;;;;5097121;28;19912;-71
2022/05/28 13:31:38;;;;;;;;;;;;;;;;;;5096263;28;19974;-71
2022/05/28 13:34:04;;;;;;;;;;;;;;;;;;5096553;28;19917;-70
2022/05/28 13:36:31;;;;;;;;;;;;;;;;;;5096063;28;19908;-70
2022/05/28 13:38:57;;;;;;;;;;;;;;;;;;5096457;28;19922;-71
2022/05/28 13:41:23;;;;;;;;;;;;;;;;;;5096605;28;19936;-71
2022/05/28 13:43:49;;;;;;;;;;;;;;;;;;5096053;28;19908;-71
2022/05/28 13:46:15;;;;;;;;;;;;;;;;;;5096431;28;19911;-71
2022/05/28 13:48:41;;;;;;;;;;;;;;;;;;5096332;28;19913;-71
2022/05/28 13:51:07;;;;;;;;;;;;;;;;;;5095873;28;20066;-71
2022/05/28 13:53:33;;;;;;;;;;;;;;;;;;5096099;28;19966;-71
2022/05/28 13:55:59;;;;;;;;;;;;;;;;;;5096148;28;19961;-70
2022/05/28 13:58:25;;;;;;;;;;;;;;;;;;5096104;28;19915;-70
2022/05/28 14:00:51;;;;;;;;;;;;;;;;;;5096021;28;19908;-70
2022/05/28 14:03:17;;;;;;;;;;;;;;;;;;5096272;28;20007;-71
2022/05/28 14:05:43;;;;;;;;;;;;;;;;;;5095475;28;19912;-70
2022/05/28 14:08:09;;;;;;;;;;;;;;;;;;5095962;28;20333;-71
2022/05/28 14:10:35;;;;;;;;;;;;;;;;;;5096211;28;19908;-71
2022/05/28 14:13:01;;;;;;;;;;;;;;;;;;5095063;28;20362;-71
2022/05/28 14:15:27;;;;;;;;;;;;;;;;;;5095833;28;20007;-71
2022/05/28 14:17:52;;;;;;;;;;;;;;;;;;5095725;28;19908;-71
2022/05/28 14:20:18;;;;;;;;;;;;;;;;;;5095277;28;20018;-71
2022/05/28 14:22:44;;;;;;;;;;;;;;;;;;5095620;28;19908;-71
2022/05/28 14:25:10;;;;;;;;;;;;;;;;;;5095911;28;19908;-71
2022/05/28 14:27:36;;;;;;;;;;;;;;;;;;5095182;28;19916;-72
2022/05/28 14:30:02;;;;;;;;;;;;;;;;;;5095508;28;19998;-72
2022/05/28 14:32:28;;;;;;;;;;;;;;;;;;5095329;28;20003;-72
2022/05/28 14:34:54;;;;;;;;;;;;;;;;;;5095256;28;19908;-72
2022/05/28 14:37:22;;;;;;;;;;;;;;;;;;5095618;28;19908;-71
2022/05/28 14:39:48;;;;;;;;;;;;;;;;;;5094866;28;19908;-71
2022/05/28 14:42:14;;;;;;;;;;;;;;;;;;5095263;28;19915;-71
2022/05/28 14:44:40;;;;;;;;;;;;;;;;;;5095174;28;19915;-71
2022/05/28 14:47:06;;;;;;;;;;;;;;;;;;5094874;28;19912;-72
2022/05/28 14:49:32;;;;;;;;;;;;;;;;;;5095208;28;19915;-72
2022/05/28 14:51:58;;;;;;;;;;;;;;;;;;5095087;28;19908;-72
2022/05/28 14:54:24;;;;;;;;;;;;;;;;;;5094688;28;20281;-72
2022/05/28 14:56:50;;;;;;;;;;;;;;;;;;5095479;28;19908;-72
2022/05/28 14:59:16;;;;;;;;;;;;;;;;;;5095349;28;19912;-71
2022/05/28 15:01:41;;;;;;;;;;;;;;;;;;5076377;28;19912;-71
2022/05/28 15:04:07;;;;;;;;;;;;;;;;;;5094897;28;19908;-72
2022/05/28 15:06:33;;;;;;;;;;;;;;;;;;5076663;28;20384;-72
2022/05/28 15:09:00;;;;;;;;;;;;;;;;;;5094376;28;20284;-71
2022/05/28 15:11:25;;;;;;;;;;;;;;;;;;5094747;28;20386;-71
2022/05/28 15:13:51;;;;;;;;;;;;;;;;;;5094484;28;20050;-71
2022/05/28 15:16:17;;;;;;;;;;;;;;;;;;5094393;28;20276;-71
2022/05/28 15:18:43;;;;;;;;;;;;;;;;;;5094573;28;20010;-72
2022/05/28 15:21:09;;;;;;;;;;;;;;;;;;5094616;28;19915;-72
2022/05/28 15:23:36;;;;;;;;;;;;;;;;;;5093689;28;20280;-71
2022/05/28 15:27:35;;;;;;;;;;;;;;;;;;5152974;27;19918;-71
2022/05/28 15:30:01;;;;;;;;;;;;;;;;;;5152505;27;19912;-71
2022/05/28 15:32:27;;;;;;;;;;;;;;;;;;5152630;27;19907;-71
2022/05/28 15:34:53;;;;;;;;;;;;;;;;;;5153183;27;19911;-71
2022/05/28 15:40:04;;;;;;;;;;;;;;;;;;5152688;27;19914;-70
2022/05/28 15:42:30;;;;;;;;;;;;;;;;;;5152574;27;19907;-70
2022/05/28 15:44:56;;;;;;;;;;;;;;;;;;5152119;27;19911;-71
2022/05/28 15:47:22;;;;;;;;;;;;;;;;;;5152839;27;19915;-71
2022/05/28 15:49:48;;;;;;;;;;;;;;;;;;5152470;27;20275;-71
2022/05/28 15:52:14;;;;;;;;;;;;;;;;;;5151902;27;20006;-71
2022/05/28 15:54:40;;;;;;;;;;;;;;;;;;5133716;27;19908;-70
2022/05/28 15:57:05;;;;;;;;;;;;;;;;;;5133558;27;19952;-70
2022/05/28 15:59:31;;;;;;;;;;;;;;;;;;5152216;27;19907;-70
2022/05/28 16:01:58;;;;;;;;;;;;;;;;;;5152091;27;19914;-71
2022/05/28 16:04:24;;;;;;;;;;;;;;;;;;5133194;27;19911;-70
2022/05/28 16:06:51;;;;;;;;;;;;;;;;;;5152054;27;20363;-70
2022/05/28 16:09:17;;;;;;;;;;;;;;;;;;5151993;27;19913;-71
2022/05/28 16:11:44;;;;;;;;;;;;;;;;;;5151833;27;20006;-71
2022/05/28 16:14:10;;;;;;;;;;;;;;;;;;5133326;27;20325;-71
2022/05/28 16:17:49;;;;;;;;;;;;;;;;;;5091801;27;20380;-71
2022/05/28 16:20:15;;;;;;;;;;;;;;;;;;5090904;28;19912;-73
2022/05/28 16:22:41;;;;;;;;;;;;;;;;;;5091244;28;19977;-71
2022/05/28 16:25:07;;;;;;;;;;;;;;;;;;5091208;28;20314;-70
2022/05/28 16:27:33;;;;;;;;;;;;;;;;;;5090999;28;19991;-73
2022/05/28 16:29:59;;;;;;;;;;;;;;;;;;5091145;28;19909;-72
2022/05/28 16:32:25;;;;;;;;;;;;;;;;;;5090693;28;19909;-71
2022/05/28 16:34:51;;;;;;;;;;;;;;;;;;5091296;28;19912;-71
2022/05/28 16:37:21;;;;;;;;;;;;;;;;;;5090894;28;19916;-71
2022/05/28 16:39:47;;;;;;;;;;;;;;;;;;5090496;28;19922;-72
2022/05/28 16:42:13;;;;;;;;;;;;;;;;;;5090840;28;19908;-72
2022/05/28 16:44:39;;;;;;;;;;;;;;;;;;5091292;28;20004;-72
2022/05/28 16:47:05;;;;;;;;;;;;;;;;;;5090569;28;20387;-71
2022/05/28 16:49:31;;;;;;;;;;;;;;;;;;5091210;28;19908;-72
2022/05/28 16:51:57;;;;;;;;;;;;;;;;;;5090546;28;19947;-71
2022/05/28 16:54:23;;;;;;;;;;;;;;;;;;5090222;28;19912;-71
2022/05/28 16:56:49;;;;;;;;;;;;;;;;;;5090446;28;19917;-71
2022/05/28 16:59:15;;;;;;;;;;;;;;;;;;5090526;28;19991;-71
2022/05/28 17:01:41;;;;;;;;;;;;;;;;;;5090338;28;19908;-72
2022/05/28 17:04:07;;;;;;;;;;;;;;;;;;5090501;28;20295;-72
2022/05/28 17:07:37;;;;;;;;;;;;;;;;;;5091103;27;19916;-70
2022/05/28 17:10:03;;;;;;;;;;;;;;;;;;5091176;28;20007;-71
2022/05/28 17:12:29;;;;;;;;;;;;;;;;;;5091127;28;19944;-71
2022/05/28 17:14:55;;;;;;;;;;;;;;;;;;5090753;28;19914;-71
2022/05/28 17:17:21;;;;;;;;;;;;;;;;;;5091006;28;19908;-71
2022/05/28 17:19:47;;;;;;;;;;;;;;;;;;5091026;28;20006;-71
2022/05/28 17:22:13;;;;;;;;;;;;;;;;;;5090756;28;20014;-71
2022/05/28 17:24:40;;;;;;;;;;;;;;;;;;5091211;28;19908;-72
2022/05/28 17:27:06;;;;;;;;;;;;;;;;;;5090808;28;19916;-71
2022/05/28 17:29:32;;;;;;;;;;;;;;;;;;5090531;28;19908;-72
2022/05/28 17:36:40;;;;;;;;;;;;;;;;;;5173506;27;20379;-71
2022/05/28 17:39:06;;;;;;;;;;;;;;;;;;5154871;27;20005;-71
2022/05/28 17:41:32;;;;;;;;;;;;;;;;;;5173522;27;20339;-71
2022/05/28 17:43:59;;;;;;;;;;;;;;;;;;5172889;27;19907;-71
2022/05/28 17:46:26;;;;;;;;;;;;;;;;;;5173491;27;19914;-71
2022/05/28 17:48:52;;;;;;;;;;;;;;;;;;5154800;27;19913;-71
2022/05/28 17:51:18;;;;;;;;;;;;;;;;;;5154336;27;19997;-72
2022/05/28 17:53:44;;;;;;;;;;;;;;;;;;5173394;27;19914;-71
2022/05/28 17:56:10;;;;;;;;;;;;;;;;;;5173229;27;19919;-71
2022/05/28 18:02:05;;;;;;;;;;;;;;;;;;5091359;27;19917;-71
2022/05/28 18:04:31;;;;;;;;;;;;;;;;;;5090874;28;20011;-73
2022/05/28 18:06:57;;;;;;;;;;;;;;;;;;5091108;28;19909;-72
2022/05/28 18:09:36;;;;;;;;;;;;;;;;;;5091644;27;19922;-71
2022/05/28 18:12:02;;;;;;;;;;;;;;;;;;5090772;28;20003;-71
2022/05/28 18:17:15;;;;;;;;;;;;;;;;;;5092021;27;20380;-71
2022/05/28 18:20:17;;;;;;;;;;;;;;;;;;5091307;27;20377;-71
2022/05/28 18:22:43;;;;;;;;;;;;;;;;;;5091223;28;20007;-72
2022/05/28 18:25:09;;;;;;;;;;;;;;;;;;5090704;28;19912;-72
2022/05/28 18:27:34;;;;;;;;;;;;;;;;;;5091162;28;20254;-72
2022/05/28 18:30:55;;;;;;;;;;;;;;;;;;5091458;27;19916;-71
2022/05/28 18:35:46;;;;;;;;;;;;;;;;;;5091949;28;19923;-70
2022/05/28 18:38:12;;;;;;;;;;;;;;;;;;5091563;28;20347;-70
2022/05/28 18:42:19;;;;;;;;;;;;;;;;;;5091546;27;20369;-70
2022/05/28 18:45:01;;;;;;;;;;;;;;;;;;5071529;28;19923;-72
2022/05/28 18:48:15;;;;;;;;;;;;;;;;;;5091063;27;19912;-72
2022/05/28 18:50:41;;;;;;;;;;;;;;;;;;5091202;28;19912;-71
2022/05/28 18:55:52;;;;;;;;;;;;;;;;;;5091114;28;20371;-71
2022/05/28 18:58:18;;;;;;;;;;;;;;;;;;5091092;28;19908;-71
2022/05/28 19:00:44;;;;;;;;;;;;;;;;;;5090690;28;19999;-71
2022/05/28 19:03:11;;;;;;;;;;;;;;;;;;5090920;28;19977;-71
2022/05/28 19:05:37;;;;;;;;;;;;;;;;;;5090902;28;19915;-71
2022/05/28 19:09:41;;;;;;;;;;;;;;;;;;5091633;27;19916;-71